Terminal Aerodrome Forecast
Issued by NWS

Home | Current Version | Previous Version | Text Only | Print | Product List | Glossary On
Versions: 1 2 3 4 5 6 7 8 9 10 11 12 13 14 15
000
FTUS42 KMLB 302034 AAA
TAFTIX
TAF AMD
KTIX 302034Z 3021/0118 24011KT P6SM VCTS BKN030CB
      TEMPO 3021/3023 3SM TSRA BKN035CB
     FM010000 24005KT P6SM SCT070 BKN250=

USA.gov is the U.S. government's official web portal to all federal, state and local government web resources and services.